Time;durP1;ratioP1;P1;durP2;ratioP2;P2;SDS_P1;SDS_P2;PMS_P1;PMS_P2;Temp;Humidity;BMP_temperature;BMP_pressure;BME280_temperature;BME280_humidity;BME280_pressure;Samples;Min_cycle;Max_cycle;Signal;HPM_P1;HPM_P2
2023/04/28 00:01:43;;;;;;;2.65;1.02;;;6.70;99.90;;;;;;5116410;28;20574;-74
2023/04/28 00:04:09;;;;;;;2.58;1.30;;;6.70;99.90;;;;;;5097995;28;20035;-75
2023/04/28 00:06:36;;;;;;;2.65;1.30;;;6.60;99.90;;;;;;5116120;28;20027;-75
2023/04/28 00:09:02;;;;;;;2.50;1.27;;;6.60;99.90;;;;;;5097849;28;20115;-75
2023/04/28 00:11:28;;;;;;;2.65;1.45;;;6.60;99.90;;;;;;5116204;28;20028;-75
2023/04/28 00:13:53;;;;;;;2.33;1.30;;;6.60;99.90;;;;;;5115858;28;20501;-75
2023/04/28 00:16:19;;;;;;;2.25;1.30;;;6.60;99.90;;;;;;5115761;28;20032;-75
2023/04/28 00:18:45;;;;;;;3.70;1.50;;;6.50;99.90;;;;;;5115758;28;20032;-74
2023/04/28 00:21:11;;;;;;;3.40;1.58;;;6.50;99.90;;;;;;5115960;28;20123;-75
2023/04/28 00:23:36;;;;;;;2.35;1.20;;;6.50;99.90;;;;;;5115862;28;20542;-75
2023/04/28 00:26:02;;;;;;;2.97;1.63;;;6.40;99.90;;;;;;5097248;28;20028;-75
2023/04/28 00:28:28;;;;;;;2.42;1.50;;;6.40;99.90;;;;;;5116141;28;20043;-74
2023/04/28 00:30:53;;;;;;;2.38;1.40;;;6.40;99.90;;;;;;5115584;28;20050;-75
2023/04/28 00:33:19;;;;;;;2.55;1.52;;;6.40;99.90;;;;;;5115256;28;20071;-75
2023/04/28 00:35:45;;;;;;;4.60;1.50;;;6.40;99.90;;;;;;5115422;28;20040;-75
2023/04/28 00:38:10;;;;;;;2.83;1.40;;;6.40;99.90;;;;;;5115514;28;20035;-75
2023/04/28 00:40:38;;;;;;;2.35;1.50;;;6.40;99.90;;;;;;5115269;28;20448;-75
2023/04/28 00:43:04;;;;;;;2.88;1.40;;;6.40;99.90;;;;;;5114728;28;20039;-75
2023/04/28 00:45:30;;;;;;;2.78;1.40;;;6.40;99.90;;;;;;5115257;28;20024;-75
2023/04/28 00:47:57;;;;;;;3.83;1.70;;;6.40;99.90;;;;;;5115440;28;20045;-75
2023/04/28 00:50:24;;;;;;;2.30;1.23;;;6.40;99.90;;;;;;5096884;28;20516;-75
2023/04/28 00:52:51;;;;;;;3.65;1.45;;;6.40;99.90;;;;;;5115091;28;20472;-75
2023/04/28 00:55:17;;;;;;;3.03;1.58;;;6.30;99.90;;;;;;5115002;28;20058;-75
2023/04/28 00:57:43;;;;;;;2.42;1.40;;;6.30;99.90;;;;;;5115054;28;20040;-75
2023/04/28 01:00:09;;;;;;;2.00;1.33;;;6.30;99.90;;;;;;5114907;28;20039;-75
2023/04/28 01:02:35;;;;;;;2.42;1.15;;;6.30;99.90;;;;;;5096592;28;20044;-75
2023/04/28 01:05:02;;;;;;;1.92;1.15;;;6.30;99.90;;;;;;5114155;28;20508;-75
2023/04/28 01:07:28;;;;;;;2.33;1.10;;;6.20;99.90;;;;;;5114795;28;20038;-75
2023/04/28 01:09:55;;;;;;;1.70;0.98;;;6.20;99.90;;;;;;5096605;28;20108;-74
2023/04/28 01:12:20;;;;;;;1.70;1.00;;;6.20;99.90;;;;;;5114807;28;20039;-75
2023/04/28 01:14:47;;;;;;;3.47;1.30;;;6.20;99.90;;;;;;5096901;28;20085;-75
2023/04/28 01:17:13;;;;;;;2.15;1.05;;;6.20;99.90;;;;;;5114460;28;20038;-75
2023/04/28 01:19:40;;;;;;;1.92;1.15;;;6.20;99.90;;;;;;5114707;28;20028;-75
2023/04/28 01:22:05;;;;;;;2.38;1.13;;;6.20;99.90;;;;;;5114548;28;20078;-74
2023/04/28 01:24:31;;;;;;;2.10;1.20;;;6.20;99.90;;;;;;5096506;28;20061;-75
2023/04/28 01:26:57;;;;;;;1.65;1.10;;;6.20;99.90;;;;;;5114330;28;20111;-75
2023/04/28 01:29:22;;;;;;;2.35;1.27;;;6.10;99.90;;;;;;5114713;28;20103;-75
2023/04/28 01:31:48;;;;;;;2.05;1.25;;;6.10;99.90;;;;;;5114535;28;20024;-75
2023/04/28 01:34:14;;;;;;;2.65;1.23;;;6.10;99.90;;;;;;5114291;28;20039;-75
2023/04/28 01:36:40;;;;;;;2.35;1.10;;;6.00;99.90;;;;;;5114220;28;20137;-75
2023/04/28 01:39:05;;;;;;;3.47;1.15;;;6.00;99.90;;;;;;5096103;28;20114;-75
2023/04/28 01:41:33;;;;;;;2.38;1.20;;;6.00;99.90;;;;;;5114364;28;20035;-75
2023/04/28 01:43:59;;;;;;;4.10;1.25;;;6.00;99.90;;;;;;5114258;28;20031;-75
2023/04/28 01:46:25;;;;;;;2.58;1.20;;;6.00;99.90;;;;;;5095820;28;20028;-75
2023/04/28 01:48:51;;;;;;;3.03;1.30;;;6.00;99.90;;;;;;5114046;28;20039;-75
2023/04/28 01:51:16;;;;;;;2.45;1.50;;;6.00;99.90;;;;;;5114075;28;20027;-75
2023/04/28 01:53:42;;;;;;;2.33;1.27;;;6.00;99.90;;;;;;5113153;28;20381;-75
2023/04/28 01:56:08;;;;;;;2.47;1.30;;;6.00;99.90;;;;;;5095816;28;20062;-75
2023/04/28 01:58:34;;;;;;;1.90;1.15;;;5.90;99.90;;;;;;5095549;28;20047;-75
2023/04/28 02:01:00;;;;;;;3.13;1.10;;;5.90;99.90;;;;;;5095740;28;20050;-75
2023/04/28 02:03:26;;;;;;;2.10;0.95;;;5.90;99.90;;;;;;5113588;28;20119;-75
2023/04/28 02:05:52;;;;;;;2.65;1.30;;;5.90;99.90;;;;;;5078808;28;20036;-75
2023/04/28 02:08:18;;;;;;;3.47;1.58;;;5.90;99.90;;;;;;5113944;28;20032;-75
2023/04/28 02:10:44;;;;;;;1.90;1.23;;;5.90;99.90;;;;;;5113726;28;20031;-75
2023/04/28 02:13:10;;;;;;;2.20;1.45;;;5.90;99.90;;;;;;5095563;28;20509;-75
2023/04/28 02:15:41;;;;;;;2.55;1.45;;;5.90;99.90;;;;;;5113627;28;20031;-75
2023/04/28 02:18:07;;;;;;;2.80;1.08;;;5.90;99.90;;;;;;5113709;28;20023;-75
2023/04/28 02:20:33;;;;;;;2.63;1.30;;;5.90;99.90;;;;;;5095296;28;20049;-74
2023/04/28 02:22:58;;;;;;;2.22;1.40;;;5.90;99.90;;;;;;5113675;28;20035;-75
2023/04/28 02:25:24;;;;;;;1.85;1.13;;;5.90;99.90;;;;;;5095755;28;20040;-75
2023/04/28 02:27:50;;;;;;;2.13;1.40;;;5.90;99.90;;;;;;5114139;28;20031;-75
2023/04/28 02:30:16;;;;;;;2.30;1.20;;;5.90;99.90;;;;;;5113858;28;20035;-75
2023/04/28 02:32:41;;;;;;;2.17;1.42;;;5.90;99.90;;;;;;5113553;28;20043;-74
2023/04/28 02:35:07;;;;;;;4.18;1.65;;;5.90;99.90;;;;;;5113457;28;20028;-75
2023/04/28 02:37:33;;;;;;;2.80;1.67;;;5.90;99.90;;;;;;5095411;28;20036;-75
2023/04/28 02:39:59;;;;;;;2.70;1.90;;;5.90;99.90;;;;;;5113536;28;20029;-75
2023/04/28 02:42:24;;;;;;;2.35;1.50;;;5.90;99.90;;;;;;5113539;28;20039;-74
2023/04/28 02:44:50;;;;;;;3.42;1.45;;;5.90;99.90;;;;;;5113447;28;20061;-75
2023/04/28 02:47:16;;;;;;;2.63;1.50;;;5.90;99.90;;;;;;5113323;28;20081;-75
2023/04/28 02:49:41;;;;;;;4.53;1.80;;;5.90;99.90;;;;;;5095155;28;20497;-75
2023/04/28 02:52:07;;;;;;;3.28;1.50;;;5.90;99.90;;;;;;5113371;28;20078;-75
2023/04/28 02:54:35;;;;;;;3.55;1.40;;;5.90;99.90;;;;;;5112878;28;20047;-75
2023/04/28 02:57:02;;;;;;;3.85;1.55;;;5.90;99.90;;;;;;5113029;28;20028;-75
2023/04/28 02:59:28;;;;;;;4.15;1.52;;;5.90;99.90;;;;;;5113267;28;20135;-75
2023/04/28 03:01:54;;;;;;;4.80;1.83;;;5.90;99.90;;;;;;5094816;28;20487;-75
2023/04/28 03:04:19;;;;;;;4.57;2.00;;;5.80;99.90;;;;;;5113544;28;20035;-75
2023/04/28 03:06:45;;;;;;;4.13;2.13;;;5.70;99.90;;;;;;5113145;28;20085;-74
2023/04/28 03:09:11;;;;;;;3.33;2.03;;;5.70;99.90;;;;;;5113185;28;20031;-75
2023/04/28 03:11:37;;;;;;;4.15;2.08;;;5.60;99.90;;;;;;5114056;28;20047;-75
2023/04/28 03:14:03;;;;;;;2.90;1.77;;;5.70;99.90;;;;;;5096023;28;20055;-75
2023/04/28 03:16:29;;;;;;;2.70;1.48;;;5.70;99.90;;;;;;5114121;28;20036;-75
2023/04/28 03:18:54;;;;;;;2.70;1.58;;;5.70;99.90;;;;;;5096093;28;20538;-75
2023/04/28 03:21:20;;;;;;;3.88;1.52;;;5.70;99.90;;;;;;5113127;28;20036;-75
2023/04/28 03:23:46;;;;;;;3.65;1.90;;;5.70;99.90;;;;;;5094887;28;20039;-75
2023/04/28 03:26:12;;;;;;;7.68;4.03;;;5.70;99.90;;;;;;5113146;28;20027;-75
2023/04/28 03:28:37;;;;;;;6.22;3.58;;;5.70;99.90;;;;;;5117005;28;20036;-75
2023/04/28 03:31:03;;;;;;;5.85;3.25;;;5.60;99.90;;;;;;5098562;28;20031;-75
2023/04/28 03:33:29;;;;;;;5.57;3.00;;;5.60;99.90;;;;;;5081866;28;20058;-75
2023/04/28 03:35:55;;;;;;;5.57;2.88;;;5.60;99.90;;;;;;5116659;28;20043;-74
2023/04/28 03:38:21;;;;;;;4.53;2.40;;;5.60;99.90;;;;;;5116803;28;20039;-74
2023/04/28 03:40:48;;;;;;;4.55;2.38;;;5.60;99.90;;;;;;5098427;28;20164;-75
2023/04/28 03:43:14;;;;;;;4.18;1.98;;;5.60;99.90;;;;;;5098647;28;20040;-75
2023/04/28 03:45:40;;;;;;;3.63;2.08;;;5.60;99.90;;;;;;5098243;28;20035;-75
2023/04/28 03:48:06;;;;;;;3.80;2.30;;;5.60;99.90;;;;;;5116580;28;20040;-75
2023/04/28 03:50:32;;;;;;;3.97;2.20;;;5.60;99.90;;;;;;5115997;28;20110;-75
2023/04/28 03:52:58;;;;;;;3.38;1.98;;;5.70;99.90;;;;;;5116585;28;20115;-75
2023/04/28 03:55:24;;;;;;;3.13;1.83;;;5.70;99.90;;;;;;5116462;28;20052;-75
2023/04/28 03:57:51;;;;;;;2.30;1.50;;;5.70;99.90;;;;;;5116458;28;20023;-75
2023/04/28 04:00:17;;;;;;;3.40;2.00;;;5.80;99.90;;;;;;5098151;28;20055;-74
2023/04/28 04:02:42;;;;;;;10.65;4.80;;;5.80;99.90;;;;;;5097293;28;20059;-75
2023/04/28 04:05:08;;;;;;;16.58;7.93;;;5.90;99.90;;;;;;5115939;28;20035;-74
2023/04/28 04:07:34;;;;;;;8.77;4.72;;;5.90;99.90;;;;;;5097663;28;20088;-74
2023/04/28 04:10:00;;;;;;;5.22;3.10;;;5.90;99.90;;;;;;5115894;28;20043;-74
2023/04/28 04:12:25;;;;;;;6.72;3.80;;;6.00;99.90;;;;;;5115759;28;20047;-74
2023/04/28 04:14:51;;;;;;;3.70;2.60;;;6.00;99.90;;;;;;5115852;28;20039;-74
2023/04/28 04:17:17;;;;;;;4.07;2.97;;;6.00;99.90;;;;;;5116131;28;20122;-74
2023/04/28 04:19:42;;;;;;;4.00;2.70;;;6.00;99.90;;;;;;5097351;28;20031;-74
2023/04/28 04:22:08;;;;;;;7.55;3.53;;;6.00;99.90;;;;;;5116110;28;20035;-74
2023/04/28 04:24:34;;;;;;;8.20;4.20;;;5.90;99.90;;;;;;5115504;28;20031;-73
2023/04/28 04:27:00;;;;;;;7.78;4.25;;;5.90;99.90;;;;;;5097361;28;20028;-74
2023/04/28 04:29:25;;;;;;;7.93;4.25;;;5.80;99.90;;;;;;5097314;28;20043;-74
2023/04/28 04:31:51;;;;;;;8.65;5.00;;;5.80;99.90;;;;;;5098111;28;20397;-74
2023/04/28 04:34:17;;;;;;;7.68;5.05;;;5.80;99.90;;;;;;5115455;28;20035;-74
2023/04/28 04:36:43;;;;;;;9.40;5.82;;;5.80;99.90;;;;;;5115763;28;20032;-74
2023/04/28 04:39:08;;;;;;;10.30;5.53;;;5.90;99.90;;;;;;5112929;28;20046;-73
2023/04/28 04:41:34;;;;;;;7.20;3.88;;;5.90;99.90;;;;;;5114342;28;20031;-73
2023/04/28 04:44:00;;;;;;;7.32;3.70;;;5.90;99.90;;;;;;5121247;27;20537;-72
2023/04/28 04:46:26;;;;;;;5.03;2.88;;;6.00;99.90;;;;;;5122219;27;20117;-72
2023/04/28 04:48:51;;;;;;;4.07;2.13;;;6.00;99.90;;;;;;5107369;27;20028;-72
2023/04/28 04:51:18;;;;;;;4.40;2.30;;;6.00;99.90;;;;;;5117280;27;20035;-73
2023/04/28 04:53:44;;;;;;;6.43;4.10;;;6.00;99.90;;;;;;5134234;27;20038;-74
2023/04/28 04:56:09;;;;;;;10.50;5.50;;;6.10;99.90;;;;;;5134549;27;20027;-74
2023/04/28 04:58:35;;;;;;;14.75;7.90;;;6.10;99.90;;;;;;5135182;27;20031;-74
2023/04/28 05:01:02;;;;;;;17.15;9.40;;;6.10;99.90;;;;;;5134739;27;20373;-74
2023/04/28 05:03:27;;;;;;;24.88;11.73;;;6.20;99.90;;;;;;5135661;27;20023;-74
2023/04/28 05:05:53;;;;;;;10.40;6.10;;;6.20;99.90;;;;;;5135154;27;20026;-74
2023/04/28 05:08:19;;;;;;;9.32;5.22;;;6.20;99.90;;;;;;5135790;27;20106;-74
2023/04/28 05:10:45;;;;;;;27.30;15.23;;;6.20;99.90;;;;;;5135387;27;20042;-74
2023/04/28 05:13:11;;;;;;;56.28;28.45;;;6.20;99.90;;;;;;5135404;27;20043;-74
2023/04/28 05:15:36;;;;;;;47.20;24.33;;;6.20;99.90;;;;;;5135305;27;20045;-74
2023/04/28 05:18:08;;;;;;;37.15;20.02;;;6.30;99.90;;;;;;5135350;27;20496;-73
2023/04/28 05:20:34;;;;;;;25.55;14.10;;;6.30;99.90;;;;;;5136168;27;20084;-74
2023/04/28 05:23:00;;;;;;;15.98;7.40;;;6.30;99.90;;;;;;5137381;27;20039;-73
2023/04/28 05:25:25;;;;;;;9.27;5.80;;;6.40;99.90;;;;;;5136144;27;20111;-73
2023/04/28 05:27:51;;;;;;;8.35;4.60;;;6.40;99.90;;;;;;5135066;27;20541;-73
2023/04/28 05:30:17;;;;;;;7.53;4.32;;;6.50;99.90;;;;;;5117022;27;20373;-74
2023/04/28 05:32:42;;;;;;;6.72;3.78;;;6.60;99.90;;;;;;5135016;27;20082;-73
2023/04/28 05:35:08;;;;;;;5.05;2.65;;;6.60;99.90;;;;;;5135178;27;20365;-73
2023/04/28 05:37:36;;;;;;;4.13;2.55;;;6.70;99.90;;;;;;5116934;27;20053;-73
2023/04/28 05:40:02;;;;;;;3.85;2.05;;;6.70;99.90;;;;;;5134784;27;20056;-73
2023/04/28 05:42:28;;;;;;;4.22;2.00;;;6.70;99.90;;;;;;5134759;27;20028;-73
2023/04/28 05:44:53;;;;;;;3.50;1.98;;;6.70;99.90;;;;;;5135012;27;20027;-73
2023/04/28 05:47:19;;;;;;;3.33;2.20;;;6.80;99.90;;;;;;5134470;27;20038;-73
2023/04/28 05:49:45;;;;;;;3.72;2.05;;;6.80;99.90;;;;;;5115928;27;20573;-73
2023/04/28 05:52:11;;;;;;;2.45;1.60;;;6.80;99.90;;;;;;5116233;27;20504;-73
2023/04/28 05:54:36;;;;;;;2.72;1.70;;;6.90;99.90;;;;;;5134702;27;20046;-73
2023/04/28 05:57:02;;;;;;;3.10;1.52;;;6.90;99.90;;;;;;5134633;27;20057;-73
2023/04/28 05:59:29;;;;;;;4.38;1.60;;;6.90;99.90;;;;;;5134547;27;20151;-73
2023/04/28 06:01:55;;;;;;;4.13;1.70;;;7.00;99.90;;;;;;5116469;27;20037;-73
2023/04/28 06:04:20;;;;;;;2.70;1.50;;;7.00;99.90;;;;;;5099181;27;20042;-73
2023/04/28 06:06:46;;;;;;;3.22;1.88;;;7.00;99.90;;;;;;5134339;27;20463;-73
2023/04/28 06:09:12;;;;;;;3.33;1.70;;;7.00;99.90;;;;;;5134444;27;20106;-73
2023/04/28 06:11:37;;;;;;;3.05;1.63;;;7.00;99.90;;;;;;5134549;27;20027;-73
2023/04/28 06:14:03;;;;;;;4.10;1.77;;;7.00;99.90;;;;;;5134319;27;20035;-73
2023/04/28 06:16:29;;;;;;;4.45;1.75;;;7.00;99.90;;;;;;5116345;27;20035;-73
2023/04/28 06:18:55;;;;;;;3.83;2.25;;;7.00;99.90;;;;;;5134383;27;20428;-73
2023/04/28 06:21:20;;;;;;;5.65;2.33;;;7.00;99.90;;;;;;5134203;27;20031;-73
2023/04/28 06:23:46;;;;;;;5.18;2.90;;;7.00;99.90;;;;;;5134618;27;20023;-73
2023/04/28 06:26:12;;;;;;;5.63;2.88;;;7.00;99.90;;;;;;5134226;28;20417;-73
2023/04/28 06:28:37;;;;;;;3.58;2.08;;;7.00;99.90;;;;;;5134652;28;20084;-73
2023/04/28 06:31:03;;;;;;;5.45;2.90;;;7.10;99.90;;;;;;5134141;28;20035;-74
2023/04/28 06:33:29;;;;;;;4.78;2.78;;;7.10;99.90;;;;;;5134681;28;20481;-74
2023/04/28 06:35:55;;;;;;;4.35;2.28;;;7.20;99.90;;;;;;5134060;28;20031;-74
2023/04/28 06:38:20;;;;;;;4.70;2.70;;;7.30;99.90;;;;;;5134713;28;20027;-74
2023/04/28 06:40:46;;;;;;;4.78;2.40;;;7.40;99.90;;;;;;5115791;28;20414;-73
2023/04/28 06:43:12;;;;;;;5.50;2.25;;;7.50;99.90;;;;;;5134081;28;20031;-73
2023/04/28 06:45:38;;;;;;;4.18;2.60;;;7.60;99.90;;;;;;5133995;28;20032;-73
2023/04/28 06:48:04;;;;;;;4.03;2.20;;;7.70;99.90;;;;;;5134348;28;20042;-74
2023/04/28 06:50:30;;;;;;;4.65;2.60;;;7.80;99.90;;;;;;5134412;28;20065;-73
2023/04/28 06:52:57;;;;;;;4.65;2.40;;;7.80;99.90;;;;;;5134357;28;20039;-73
2023/04/28 06:55:23;;;;;;;7.28;3.00;;;7.90;99.90;;;;;;5115623;28;20035;-73
2023/04/28 06:57:49;;;;;;;4.47;2.45;;;8.00;99.90;;;;;;5115637;28;20035;-73
2023/04/28 07:00:15;;;;;;;3.70;2.03;;;8.10;99.90;;;;;;5134199;28;20035;-74
2023/04/28 07:02:41;;;;;;;6.82;3.00;;;8.10;99.90;;;;;;5136380;27;20039;-73
2023/04/28 07:05:07;;;;;;;5.45;2.50;;;8.20;99.90;;;;;;5137931;27;20038;-73
2023/04/28 07:07:33;;;;;;;4.63;2.85;;;8.20;99.90;;;;;;5138226;27;20031;-73
2023/04/28 07:09:59;;;;;;;6.32;3.13;;;8.30;99.90;;;;;;5137407;27;20030;-74
2023/04/28 07:12:26;;;;;;;5.18;3.30;;;8.30;99.90;;;;;;5135719;27;20531;-73
2023/04/28 07:14:52;;;;;;;4.80;2.83;;;8.40;99.90;;;;;;5135712;27;20110;-73
2023/04/28 07:17:17;;;;;;;4.85;3.10;;;8.40;99.90;;;;;;5136579;27;20110;-73
2023/04/28 07:19:43;;;;;;;6.03;3.67;;;8.50;99.90;;;;;;5137858;27;20070;-73
2023/04/28 07:22:09;;;;;;;7.32;3.67;;;8.60;99.90;;;;;;5137944;27;20027;-74
2023/04/28 07:24:36;;;;;;;6.38;3.10;;;8.60;99.90;;;;;;5119118;27;20503;-73
2023/04/28 07:27:03;;;;;;;6.00;2.83;;;8.60;99.90;;;;;;5137493;27;20034;-73
2023/04/28 07:29:32;;;;;;;3.97;2.30;;;8.60;99.90;;;;;;5137600;27;20023;-73
2023/04/28 07:32:00;;;;;;;4.63;2.55;;;8.70;99.90;;;;;;5137483;27;20080;-73
2023/04/28 07:34:26;;;;;;;9.10;3.80;;;8.70;99.90;;;;;;5137430;27;20035;-73
2023/04/28 07:36:52;;;;;;;11.15;4.65;;;8.80;99.90;;;;;;5137902;27;20110;-73
2023/04/28 07:39:17;;;;;;;5.18;3.10;;;8.80;99.90;;;;;;5137254;27;20054;-73
2023/04/28 07:41:43;;;;;;;4.35;3.05;;;8.90;99.90;;;;;;5137372;27;20098;-73
2023/04/28 07:44:09;;;;;;;7.47;2.63;;;8.90;99.90;;;;;;5137224;27;20034;-73
2023/04/28 07:46:35;;;;;;;4.68;2.40;;;8.90;99.90;;;;;;5137231;27;20434;-73
2023/04/28 07:49:01;;;;;;;5.45;3.17;;;9.00;99.90;;;;;;5137182;27;20027;-73
2023/04/28 07:51:27;;;;;;;5.05;2.30;;;9.00;99.90;;;;;;5137082;27;20080;-73
2023/04/28 07:53:53;;;;;;;4.18;2.10;;;9.00;99.90;;;;;;5137327;27;20039;-73
2023/04/28 07:56:20;;;;;;;3.15;2.30;;;9.00;99.90;;;;;;5136960;27;20617;-73
2023/04/28 07:58:46;;;;;;;4.10;2.47;;;9.10;99.90;;;;;;5136847;27;20027;-73
2023/04/28 08:01:12;;;;;;;5.80;3.80;;;9.10;99.90;;;;;;5136874;27;20037;-73
2023/04/28 08:03:38;;;;;;;4.90;3.30;;;9.20;99.90;;;;;;5136827;27;20038;-72
2023/04/28 08:06:03;;;;;;;4.20;2.58;;;9.20;99.90;;;;;;5118725;27;20155;-72
2023/04/28 08:08:29;;;;;;;4.15;2.95;;;9.40;99.90;;;;;;5137320;27;20031;-73
2023/04/28 08:10:56;;;;;;;5.13;1.90;;;9.50;99.90;;;;;;5136779;27;20058;-73
2023/04/28 08:13:21;;;;;;;5.80;2.38;;;9.50;99.90;;;;;;5136471;27;20042;-73
2023/04/28 08:15:48;;;;;;;3.85;2.08;;;9.60;99.90;;;;;;5136858;27;20027;-73
2023/04/28 08:18:14;;;;;;;4.72;2.30;;;9.70;99.90;;;;;;5136803;27;20389;-73
2023/04/28 08:20:40;;;;;;;3.88;2.17;;;9.80;99.90;;;;;;5136521;27;20107;-73
2023/04/28 08:23:07;;;;;;;5.32;2.78;;;9.80;99.90;;;;;;5136758;27;20135;-73
2023/04/28 08:25:33;;;;;;;5.78;3.00;;;10.00;99.90;;;;;;5136399;27;20023;-73
2023/04/28 08:27:58;;;;;;;7.75;4.10;;;10.20;99.90;;;;;;5136346;27;20033;-73
2023/04/28 08:30:24;;;;;;;10.77;5.07;;;10.30;99.90;;;;;;5118138;27;20067;-73
2023/04/28 08:32:50;;;;;;;7.15;4.38;;;10.40;99.90;;;;;;5136624;27;20043;-73
2023/04/28 08:35:16;;;;;;;7.25;3.70;;;10.50;99.90;;;;;;5136349;27;20035;-73
2023/04/28 08:37:42;;;;;;;8.50;4.80;;;10.60;99.90;;;;;;5136493;27;20032;-73
2023/04/28 08:40:08;;;;;;;7.72;4.72;;;10.50;99.90;;;;;;5118073;27;20084;-73
2023/04/28 08:42:36;;;;;;;6.13;2.80;;;10.60;99.90;;;;;;5136592;27;20039;-73
2023/04/28 08:45:03;;;;;;;4.65;2.95;;;10.60;99.90;;;;;;5136216;27;20026;-73
2023/04/28 08:47:38;;;;;;;3.08;2.33;;;10.60;99.90;;;;;;5135867;27;20023;-73
2023/04/28 08:50:05;;;;;;;3.22;1.92;;;10.60;99.90;;;;;;5135973;27;20473;-73
2023/04/28 08:52:32;;;;;;;4.20;2.00;;;10.60;99.90;;;;;;5135904;27;20089;-73
2023/04/28 08:54:58;;;;;;;2.90;1.58;;;10.60;99.90;;;;;;5136175;27;20084;-73
2023/04/28 08:57:27;;;;;;;3.13;2.15;;;10.60;99.90;;;;;;5135755;27;20023;-73
2023/04/28 08:59:53;;;;;;;3.30;1.70;;;10.60;99.90;;;;;;5134458;27;20443;-73
2023/04/28 09:02:19;;;;;;;3.78;2.15;;;10.60;99.90;;;;;;5135707;27;20109;-73
2023/04/28 09:04:46;;;;;;;5.18;2.10;;;10.60;99.90;;;;;;5135631;27;20388;-74
2023/04/28 09:07:12;;;;;;;6.75;2.95;;;10.70;99.90;;;;;;5135607;27;20027;-74
2023/04/28 09:09:39;;;;;;;7.70;3.30;;;10.70;99.90;;;;;;5135605;27;20104;-74
2023/04/28 09:12:06;;;;;;;6.47;3.03;;;10.80;99.90;;;;;;5135311;27;20042;-74
2023/04/28 09:14:36;;;;;;;5.10;2.80;;;10.80;99.90;;;;;;5135739;27;20027;-74
2023/04/28 09:17:08;;;;;;;6.55;2.67;;;10.90;99.90;;;;;;5135393;27;20027;-74
2023/04/28 09:19:35;;;;;;;4.68;2.72;;;10.90;99.90;;;;;;5135364;27;20476;-74
2023/04/28 09:22:01;;;;;;;3.45;2.22;;;10.90;99.90;;;;;;5117017;27;20027;-74
2023/04/28 09:24:32;;;;;;;5.32;3.33;;;10.90;99.90;;;;;;5134640;27;20123;-74
2023/04/28 09:26:59;;;;;;;5.85;3.40;;;11.00;99.90;;;;;;5135226;27;20030;-74
2023/04/28 09:29:25;;;;;;;5.88;2.75;;;11.00;99.90;;;;;;5135135;27;20023;-75
2023/04/28 09:31:52;;;;;;;3.97;2.08;;;11.00;99.90;;;;;;5135144;27;20046;-74
2023/04/28 09:34:18;;;;;;;6.78;2.92;;;10.90;99.90;;;;;;5066014;22;20069;-81
2023/04/28 09:36:44;;;;;;;22.88;11.80;;;10.90;99.90;;;;;;4980667;28;20037;-81
2023/04/28 09:39:11;;;;;;;17.40;8.93;;;10.80;99.90;;;;;;4997937;28;20030;-81
2023/04/28 09:41:42;;;;;;;10.93;6.68;;;10.70;99.90;;;;;;4998240;28;20039;-81
2023/04/28 09:44:12;;;;;;;7.82;4.50;;;10.70;99.90;;;;;;4999950;28;20408;-81
2023/04/28 09:46:39;;;;;;;19.77;14.68;;;10.70;99.90;;;;;;5017583;28;20026;-81
2023/04/28 09:49:04;;;;;;;11.60;8.88;;;10.60;99.90;;;;;;5000189;28;20089;-81
2023/04/28 09:51:31;;;;;;;15.20;8.23;;;10.60;99.90;;;;;;4999674;28;20065;-81
2023/04/28 09:53:59;;;;;;;19.25;15.15;;;10.60;99.90;;;;;;4982423;28;20431;-82
2023/04/28 09:56:28;;;;;;;11.00;8.32;;;10.50;99.90;;;;;;5015482;28;20061;-82
2023/04/28 09:58:57;;;;;;;5.85;2.83;;;10.50;99.90;;;;;;5015480;28;20033;-82
2023/04/28 10:01:24;;;;;;;4.00;2.40;;;10.50;99.90;;;;;;5015009;28;20029;-83
2023/04/28 10:03:52;;;;;;;4.53;2.30;;;10.50;99.90;;;;;;4981736;28;20077;-83
2023/04/28 10:06:19;;;;;;;4.93;2.30;;;10.40;99.90;;;;;;5012899;28;20080;-83
2023/04/28 10:08:47;;;;;;;4.82;1.88;;;10.30;99.90;;;;;;4980955;28;20092;-84
2023/04/28 10:11:15;;;;;;;4.88;2.40;;;10.30;99.90;;;;;;4981148;28;20042;-84
2023/04/28 10:13:42;;;;;;;7.15;2.50;;;10.20;99.90;;;;;;5013006;28;20057;-84
2023/04/28 10:16:09;;;;;;;4.75;2.35;;;10.20;99.90;;;;;;5012710;28;20083;-84
2023/04/28 10:18:36;;;;;;;3.92;2.35;;;10.20;99.90;;;;;;4997104;28;20054;-84
2023/04/28 10:21:03;;;;;;;7.43;4.63;;;10.20;99.90;;;;;;4996257;28;20504;-85
2023/04/28 10:23:59;;;;;;;4.95;3.13;;;10.30;99.90;;;;;;5007087;28;20086;-85
2023/04/28 10:26:53;;;;;;;5.82;2.50;;;10.30;99.90;;;;;;4994382;28;20034;-85
2023/04/28 10:29:26;;;;;;;4.03;2.30;;;10.30;99.90;;;;;;4976818;28;20027;-85
2023/04/28 10:32:24;;;;;;;4.70;2.25;;;10.20;99.90;;;;;;4976422;28;20034;-85
2023/04/28 10:34:51;;;;;;;3.25;2.13;;;10.20;99.90;;;;;;4966332;28;20042;-85
2023/04/28 10:37:18;;;;;;;4.15;2.17;;;10.20;99.90;;;;;;4963565;28;20046;-85
2023/04/28 10:40:21;;;;;;;4.35;1.98;;;10.20;99.90;;;;;;4981402;28;20030;-85
2023/04/28 10:42:52;;;;;;;4.20;2.08;;;10.20;99.90;;;;;;4998680;28;20035;-85
2023/04/28 10:45:58;;;;;;;6.78;2.28;;;10.20;99.90;;;;;;4980650;28;20033;-85
2023/04/28 10:48:33;;;;;;;4.57;2.60;;;10.20;99.90;;;;;;4981950;28;20435;-85
2023/04/28 10:51:05;;;;;;;5.00;2.80;;;10.20;99.90;;;;;;4981645;28;20038;-85
2023/04/28 10:53:43;;;;;;;4.53;2.60;;;10.20;99.90;;;;;;4988458;28;20069;-85
2023/04/28 10:56:20;;;;;;;4.95;3.00;;;10.20;99.90;;;;;;5018561;28;20108;-85
2023/04/28 10:58:56;;;;;;;6.53;2.67;;;10.30;99.90;;;;;;4986062;28;20041;-85
2023/04/28 11:01:23;;;;;;;6.38;2.88;;;10.20;99.90;;;;;;5000747;28;20116;-85
2023/04/28 11:03:50;;;;;;;3.70;2.15;;;10.30;99.90;;;;;;5000581;28;20034;-85
2023/04/28 11:06:33;;;;;;;3.80;2.30;;;10.40;99.90;;;;;;5013082;28;20034;-85
2023/04/28 11:09:02;;;;;;;4.32;2.47;;;10.50;99.90;;;;;;4981375;28;20430;-85
2023/04/28 11:11:37;;;;;;;27.10;16.33;;;10.50;99.90;;;;;;5015486;28;20034;-85
2023/04/28 11:14:19;;;;;;;35.97;22.27;;;10.50;99.90;;;;;;5017443;28;20033;-85
2023/04/28 11:16:54;;;;;;;12.88;8.13;;;10.50;99.90;;;;;;5016381;28;20100;-85
2023/04/28 11:19:25;;;;;;;9.57;4.95;;;10.40;99.90;;;;;;5016183;28;20427;-85
2023/04/28 11:21:53;;;;;;;6.07;4.32;;;10.40;99.90;;;;;;4999993;28;20045;-86
2023/04/28 11:24:19;;;;;;;5.18;3.45;;;10.40;99.90;;;;;;4986349;28;20022;-86
2023/04/28 11:26:44;;;;;;;4.57;2.70;;;10.30;99.90;;;;;;4980582;28;20449;-85
2023/04/28 11:29:13;;;;;;;5.68;2.90;;;10.30;99.90;;;;;;4964438;28;20039;-85
2023/04/28 11:31:47;;;;;;;3.78;2.30;;;10.20;99.90;;;;;;4964308;28;20050;-85
2023/04/28 11:34:18;;;;;;;4.40;2.30;;;10.20;99.90;;;;;;4980118;28;20042;-85
2023/04/28 11:36:44;;;;;;;4.72;2.78;;;10.20;99.90;;;;;;4997324;28;20100;-85
2023/04/28 11:39:12;;;;;;;6.95;2.85;;;10.30;99.90;;;;;;4997125;28;20038;-85
2023/04/28 11:41:40;;;;;;;3.95;2.22;;;10.40;99.90;;;;;;4963917;28;20074;-85
2023/04/28 11:44:17;;;;;;;5.47;2.78;;;10.40;99.90;;;;;;4997183;28;20023;-85
2023/04/28 11:46:49;;;;;;;4.78;2.50;;;10.50;99.90;;;;;;4997563;28;20034;-84
2023/04/28 11:49:17;;;;;;;5.15;2.70;;;10.60;99.90;;;;;;4997319;28;20034;-85
2023/04/28 11:51:48;;;;;;;3.45;2.47;;;10.60;99.90;;;;;;4963668;28;20408;-85
2023/04/28 11:54:23;;;;;;;4.95;3.30;;;10.60;99.90;;;;;;4998997;28;20030;-84
2023/04/28 11:56:50;;;;;;;4.90;3.17;;;10.70;99.90;;;;;;4999424;28;20030;-85
2023/04/28 11:59:16;;;;;;;9.23;4.85;;;10.70;99.90;;;;;;5016889;28;20033;-84
2023/04/28 12:01:50;;;;;;;8.25;4.25;;;10.70;99.90;;;;;;4998277;28;20093;-85
2023/04/28 12:04:46;;;;;;;9.98;2.90;;;10.70;99.90;;;;;;5016542;28;20404;-85
2023/04/28 12:07:14;;;;;;;6.68;3.28;;;10.60;99.90;;;;;;4996105;28;20054;-84
2023/04/28 12:10:08;;;;;;;7.15;3.10;;;10.60;99.90;;;;;;4978826;28;20053;-84
2023/04/28 12:12:34;;;;;;;4.85;3.10;;;10.60;99.90;;;;;;5010461;28;20038;-85
2023/04/28 12:15:01;;;;;;;5.18;2.70;;;10.50;99.90;;;;;;5016156;28;20044;-85
2023/04/28 12:17:29;;;;;;;7.63;3.10;;;10.50;99.90;;;;;;4994509;28;20508;-85
2023/04/28 12:19:56;;;;;;;9.50;4.25;;;10.40;99.90;;;;;;4985968;28;20046;-85
2023/04/28 12:22:23;;;;;;;9.40;3.80;;;10.40;99.90;;;;;;4998852;28;20038;-85
2023/04/28 12:25:06;;;;;;;7.57;4.75;;;10.40;99.90;;;;;;4996476;28;20042;-85
2023/04/28 12:27:33;;;;;;;11.73;5.65;;;10.40;99.90;;;;;;4997201;28;20184;-84
2023/04/28 12:29:59;;;;;;;14.30;7.15;;;10.40;99.90;;;;;;4995960;28;20034;-84
2023/04/28 12:32:44;;;;;;;16.73;7.07;;;10.40;99.90;;;;;;4995625;28;20563;-85
2023/04/28 12:35:10;;;;;;;13.30;5.47;;;10.50;99.90;;;;;;4996084;28;20046;-84
2023/04/28 12:37:40;;;;;;;10.20;4.45;;;10.40;99.90;;;;;;4978715;28;20119;-84
2023/04/28 12:40:07;;;;;;;9.23;4.25;;;10.40;99.90;;;;;;4979167;28;20034;-84
2023/04/28 12:42:34;;;;;;;8.32;3.35;;;10.50;99.90;;;;;;4979041;28;20046;-85
2023/04/28 12:45:00;;;;;;;6.43;3.20;;;10.50;99.90;;;;;;4995605;28;20049;-84
2023/04/28 12:47:25;;;;;;;3.92;2.53;;;10.50;99.90;;;;;;4996107;28;20034;-84
2023/04/28 12:49:52;;;;;;;3.92;2.10;;;10.50;99.90;;;;;;4963566;28;20039;-84
2023/04/28 12:52:21;;;;;;;5.53;3.22;;;10.50;99.90;;;;;;4948145;28;20042;-84
2023/04/28 12:54:47;;;;;;;7.03;4.05;;;10.50;99.90;;;;;;4981181;28;20095;-84